• Join FlightAware (Why Join?)
  • Login
  • US Flag 
01:42PM EST


 

Airport Tracker/Info


-or-


 

Live Flight TrackerFlight Track Log ✈ LT912 ✈ 30-Apr-2013 ✈ CYOJ - CYEG

Flight Track Log - Related Links

Times and Time Zones

All times are in EDT time to prevent confusion due to time zone crossing. See the LT912 flight status page for this flight to view local times or setup timezone preferences in your user account.

Time Position Orientation Groundspeed Altitude Reporting Facility
EDT Latitude Longitude Course Direction KTS MPH feet Rate Location/Type
10:50PM 58.1478 -116.8037 158° South  Level FlightAware Approximate
10:51PM 58.0813 -116.7519 157° South  Level FlightAware Approximate
10:52PM 58.0149 -116.6995 157° South  Level FlightAware Approximate
10:53PM 57.9485 -116.6473 157° South  Level FlightAware Approximate
10:54PM 57.8820 -116.5953 157° South  Level FlightAware Approximate
10:55PM 57.8158 -116.5426 157° South  Level FlightAware Approximate
10:56PM 57.7492 -116.4915 159° South  Level FlightAware Approximate
10:57PM 57.6822 -116.4424 159° South  Level FlightAware Approximate
10:58PM 57.6152 -116.3934 159° South  Level FlightAware Approximate
10:59PM 57.5481 -116.3446 159° South  Level FlightAware Approximate
11:00PM 57.4811 -116.2960 159° South  Level FlightAware Approximate
11:00PM 57.7000 -116.5333 159° South 310 357 21,000  Level Edmonton Center
11:01PM 57.4140 -116.2476 159° South  Level FlightAware Approximate
11:01PM 57.6333 -116.4833 158° South 290 334 21,000  Level Edmonton Center
11:02PM 57.3469 -116.1993 159° South  Level FlightAware Approximate
11:02PM 57.5500 -116.4167 157° South 290 334 21,000  Level Edmonton Center
11:03PM 57.2798 -116.1513 159° South  Level FlightAware Approximate
11:03PM 57.4833 -116.3667 158° South 290 334 21,000  Level Edmonton Center
11:04PM 57.2127 -116.1034 159° South  Level FlightAware Approximate
11:04PM 57.4000 -116.3167 162° South 280 322 21,000  Level Edmonton Center
11:05PM 57.1456 -116.0557 159° South  Level FlightAware Approximate
11:05PM 57.3333 -116.2500 152° Southeast 290 334 21,000  Level Edmonton Center
11:06PM 57.0784 -116.0081 159° South  Level FlightAware Approximate
11:06PM 57.2667 -116.2000 158° South 290 334 21,000  Level Edmonton Center
11:07PM 57.1833 -116.1500 162° South 290 334 21,000  Level Edmonton Center
11:08PM 57.1167 -116.1000 158° South 280 322 21,000  Level Edmonton Center
11:09PM 57.0333 -116.0333 156° South 290 334 21,000  Level Edmonton Center
11:10PM 56.9500 -115.9833 162° South 280 322 21,000  Level Edmonton Center
11:11PM 56.9000 -115.9333 151° Southeast 280 322 21,000  Level Edmonton Center
11:12PM 56.8167 -115.8667 156° South 280 322 21,000  Level Edmonton Center
11:13PM 56.7500 -115.8167 158° South 280 322 21,000  Level Edmonton Center
11:14PM 56.6667 -115.7667 162° South 280 322 21,000  Level Edmonton Center
11:15PM 56.5833 -115.7167 162° South 290 334 21,000  Level Edmonton Center
11:16PM 56.5167 -115.6667 158° South 280 322 21,000  Level Edmonton Center
11:17PM 56.4500 -115.6167 157° South 290 334 21,000  Level Edmonton Center
11:18PM 56.3667 -115.5500 156° South 300 345 21,000  Level Edmonton Center
11:19PM 56.3000 -115.5000 157° South 280 322 21,000  Level Edmonton Center
11:20PM 56.2167 -115.4500 162° South 280 322 21,000  Level Edmonton Center
11:21PM 56.1333 -115.4000 162° South 280 322 21,000  Level Edmonton Center
11:22PM 56.0500 -115.3500 156° South 280 322 21,000  Level Edmonton Center
11:23PM 56.0575 -115.3404 156° South  Level FlightAware Approximate
11:23PM 55.9833 -115.3000 157° South 280 322 21,000  Level Edmonton Center
11:24PM 55.9333 -115.2500 151° Southeast 280 322 21,000  Level Edmonton Center
11:25PM 55.8500 -115.2000 161° South 280 322 21,000  Level Edmonton Center
11:26PM 55.7667 -115.1500 161° South 280 322 21,000  Level Edmonton Center
11:27PM 55.7000 -115.1000 157° South 290 334 21,000  Level Edmonton Center
11:28PM 55.6167 -115.0500 161° South 290 334 21,000  Level Edmonton Center
11:29PM 55.5333 -115.0000 161° South 290 334 21,000 -60 Level Edmonton Center
11:30PM 55.4667 -114.9500 157° South 290 334 20,900 -60 Descending Edmonton Center
11:31PM 55.3833 -114.9167 167° South 290 334 20,900  Level Edmonton Center
11:32PM 55.3167 -114.8500 150° Southeast 290 334 20,900  Level Edmonton Center
11:33PM 55.2333 -114.8000 161° South 290 334 21,000  Climbing Edmonton Center
11:34PM 55.1667 -114.7500 157° South 290 334 21,000  Level Edmonton Center
11:35PM 55.0833 -114.7000 161° South 290 334 21,000  Level Edmonton Center
11:36PM 55.0000 -114.6667 167° South 290 334 21,000  Level Edmonton Center
11:37PM 54.9333 -114.6333 164° South 290 334 21,000  Level Edmonton Center
11:38PM 54.8500 -114.5833 161° South 290 334 21,000  Level Edmonton Center
11:39PM 54.7833 -114.5000 144° Southeast 290 334 21,000  Level Edmonton Center
11:40PM 54.7000 -114.4500 161° South 290 334 21,000  Level Edmonton Center
11:41PM 54.6333 -114.4000 157° South 290 334 21,000  Level Edmonton Center
11:42PM 54.5500 -114.3500 161° South 290 334 21,000  Level Edmonton Center
11:43PM 54.4667 -114.3000 161° South 290 334 21,000  Level Edmonton Center
11:44PM 54.3833 -114.2667 167° South 290 334 21,000 -180 Level Edmonton Center
11:45PM 54.3000 -114.2167 161° South 290 334 20,700 -720 Descending Edmonton Center
11:46PM 54.2333 -114.1667 156° South 310 357 19,600 -1,200 Descending Edmonton Center
11:47PM 54.1333 -114.1167 164° South 320 368 18,300 -1,320 Descending Edmonton Center
11:48PM 54.0667 -114.0667 156° South 320 368 17,000 -1,440 Descending Edmonton Center
11:50PM 53.9894 -114.0161 157° South  Level Estimated
11:55PM 53.5333 -113.6667 158° South 270 311 6,800  Level Edmonton Center
11:56PM 53.4667 -113.6167 156° South 240 276 6,300 -300 Descending Edmonton Center
11:57PM 53.5157 -113.6956 162° South  Level FlightAware Approximate
11:57PM 53.4167 -113.5833 158° South 200 230 6,300  Level Edmonton Center
11:58PM 53.4473 -113.6578 162° South  Level FlightAware Approximate
11:59PM 53.3804 -113.6152 163° South  Level FlightAware Approximate
11:59PM 53.3297 -113.5864 158° South  Level FlightAware Approximate
11:59PM 53.3167 -113.4667 158° South 180 207 5,900  Level Edmonton Center
12:00AM 53.3126 -113.5751 158° South  Level FlightAware Approximate
12:00AM 53.2667 -113.4333 158° South 180 207 4,700  Level Edmonton Center
12:01AM 53.3097 -113.5797 158° South  Level Estimated
12:01AM 53.2500 -113.4833 241° Southwest 140 161 3,700  Level Edmonton Center
12:02AM 53.2333 -113.5333 241° Southwest 130 150 3,100 -600 Descending Edmonton Center
12:03AM 53.2667 -113.5833 318° Northwest 120 138 2,500 -600 Descending Edmonton Center